createdAt,value
2019-04-26T00:01:35.347Z,13.70
2019-04-26T00:04:16.211Z,13.80
2019-04-26T00:06:47.263Z,14.20
2019-04-26T00:09:50.001Z,14.30
2019-04-26T00:12:34.375Z,14.60
2019-04-26T00:15:33.632Z,14.60
2019-04-26T00:18:04.482Z,14.60
2019-04-26T00:20:34.701Z,14.90
2019-04-26T00:23:05.147Z,15.10
2019-04-26T00:25:35.677Z,15.30
2019-04-26T00:28:07.205Z,15.30
2019-04-26T00:30:38.258Z,15.40
2019-04-26T00:33:11.962Z,15.50
2019-04-26T00:35:47.682Z,15.60
2019-04-26T00:38:14.393Z,15.60
2019-04-26T00:40:45.704Z,15.60
2019-04-26T00:43:16.404Z,15.60
2019-04-26T00:45:47.224Z,15.60
2019-04-26T00:48:18.996Z,15.70
2019-04-26T00:50:51.996Z,15.60
2019-04-26T00:53:25.932Z,15.50
2019-04-26T00:55:57.644Z,15.60
2019-04-26T00:58:29.734Z,15.60
2019-04-26T01:01:02.177Z,15.60
2019-04-26T01:03:34.215Z,15.70
2019-04-26T01:06:07.103Z,15.70
2019-04-26T01:08:37.734Z,15.50
2019-04-26T01:11:08.842Z,15.50
2019-04-26T01:13:39.090Z,15.40
2019-04-26T01:16:09.214Z,15.40
2019-04-26T01:18:40.761Z,15.30
2019-04-26T01:21:12.794Z,15.30
2019-04-26T01:23:45.806Z,15.30
2019-04-26T01:26:23.182Z,15.30
2019-04-26T01:28:58.973Z,15.20
2019-04-26T01:31:31.613Z,15.10
2019-04-26T01:36:37.044Z,15.00
2019-04-26T01:37:20.506Z,15.00
2019-04-26T01:39:21.258Z,14.90
2019-04-26T01:42:08.066Z,14.90
2019-04-26T01:45:05.727Z,14.90
2019-04-26T01:47:37.055Z,14.90
2019-04-26T01:50:07.788Z,14.80
2019-04-26T01:52:39.253Z,14.90
2019-04-26T01:55:11.101Z,14.90
2019-04-26T01:57:43.173Z,14.70
2019-04-26T02:00:31.751Z,14.60
2019-04-26T02:03:06.952Z,14.30
2019-04-26T02:05:38.075Z,14.00
2019-04-26T02:08:08.623Z,13.40
2019-04-26T02:10:38.822Z,13.00
2019-04-26T02:13:09.047Z,13.30
2019-04-26T02:15:39.566Z,13.60
2019-04-26T02:18:10.118Z,13.80
2019-04-26T02:21:34.680Z,14.20
2019-04-26T02:24:39.609Z,14.10
2019-04-26T02:27:21.669Z,14.00
2019-04-26T02:29:52.691Z,14.00
2019-04-26T02:32:23.227Z,13.80
2019-04-26T02:34:53.431Z,14.10
2019-04-26T02:37:24.279Z,14.20
2019-04-26T02:39:56.943Z,13.90
2019-04-26T02:42:48.018Z,13.50
2019-04-26T02:45:58.774Z,12.90
2019-04-26T02:49:15.248Z,12.50
2019-04-26T02:52:01.732Z,12.40
2019-04-26T02:54:47.739Z,11.90
2019-04-26T02:57:24.542Z,11.60
2019-04-26T03:00:01.854Z,11.50
2019-04-26T03:02:36.140Z,11.50
2019-04-26T03:05:09.297Z,11.50
2019-04-26T03:08:09.367Z,11.60
2019-04-26T03:10:45.311Z,11.60
2019-04-26T03:13:38.063Z,11.70
2019-04-26T03:16:29.334Z,11.70
2019-04-26T03:19:18.093Z,11.20
2019-04-26T03:22:25.557Z,10.80
2019-04-26T03:25:05.190Z,10.70
2019-04-26T03:28:05.531Z,10.60
2019-04-26T03:31:00.903Z,10.30
2019-04-26T03:34:03.501Z,10.00
2019-04-26T03:37:29.736Z,10.00
2019-04-26T03:40:36.866Z,9.90
2019-04-26T03:43:49.451Z,9.70
2019-04-26T03:46:47.769Z,9.50
2019-04-26T03:49:58.036Z,9.30
2019-04-26T03:53:21.799Z,9.20
2019-04-26T03:57:13.174Z,9.00
2019-04-26T04:00:22.390Z,8.90
2019-04-26T04:03:17.561Z,8.80
2019-04-26T04:05:51.375Z,8.90
2019-04-26T04:08:26.833Z,9.00
2019-04-26T04:11:02.597Z,9.00
2019-04-26T04:13:55.533Z,9.00
2019-04-26T04:16:50.559Z,9.10
2019-04-26T04:20:19.336Z,9.10
2019-04-26T04:22:55.182Z,9.10
2019-04-26T04:25:32.546Z,9.00
2019-04-26T04:28:17.546Z,9.00
2019-04-26T04:31:12.964Z,8.90
2019-04-26T04:33:56.320Z,8.90
2019-04-26T04:36:31.550Z,9.10
2019-04-26T04:39:12.315Z,9.10
2019-04-26T04:42:12.243Z,9.20
2019-04-26T04:45:36.865Z,9.10
2019-04-26T04:48:43.296Z,9.20
2019-04-26T04:51:37.657Z,9.10
2019-04-26T04:54:18.535Z,9.20
2019-04-26T04:57:09.217Z,9.30
2019-04-26T05:00:27.982Z,9.30
2019-04-26T05:03:39.559Z,9.30
2019-04-26T05:06:31.130Z,9.20
2019-04-26T05:09:09.399Z,9.20
2019-04-26T05:11:56.395Z,9.20
2019-04-26T05:14:36.720Z,9.10
2019-04-26T05:17:56.884Z,9.10
2019-04-26T05:20:43.271Z,9.10
2019-04-26T05:23:59.954Z,9.10
2019-04-26T05:27:51.422Z,9.10
2019-04-26T05:31:12.737Z,9.00
2019-04-26T05:34:03.971Z,9.00
2019-04-26T05:36:52.744Z,9.00
2019-04-26T05:39:28.319Z,9.00
2019-04-26T05:42:48.412Z,9.00
2019-04-26T05:46:06.932Z,9.10
2019-04-26T05:49:02.129Z,9.10
2019-04-26T05:51:57.805Z,9.20
2019-04-26T05:55:03.801Z,9.30
2019-04-26T05:58:02.921Z,9.40
2019-04-26T06:01:25.317Z,9.40
2019-04-26T06:04:40.897Z,9.40
2019-04-26T06:07:31.708Z,9.50
2019-04-26T06:10:35.726Z,9.40
2019-04-26T06:14:01.956Z,9.50
2019-04-26T06:17:22.452Z,9.50
2019-04-26T06:20:23.230Z,9.50
2019-04-26T06:23:03.867Z,9.40
2019-04-26T06:26:04.655Z,9.40
2019-04-26T06:28:56.340Z,9.40
2019-04-26T06:31:36.998Z,9.40
2019-04-26T06:34:24.828Z,9.30
2019-04-26T06:37:14.678Z,9.30
2019-04-26T06:40:11.905Z,9.40
2019-04-26T06:43:16.121Z,9.70
2019-04-26T06:46:42.281Z,9.80
2019-04-26T06:49:46.850Z,9.90
2019-04-26T06:52:20.992Z,10.10
2019-04-26T06:55:22.105Z,10.10
2019-04-26T06:58:20.813Z,10.20
2019-04-26T07:01:23.074Z,10.20
2019-04-26T07:04:08.028Z,10.20
2019-04-26T07:06:45.025Z,10.50
2019-04-26T07:09:18.380Z,10.40
2019-04-26T07:12:19.768Z,10.50
2019-04-26T07:15:46.513Z,10.70
2019-04-26T07:18:55.712Z,10.70
2019-04-26T07:22:38.871Z,11.00
2019-04-26T07:25:48.843Z,10.70
2019-04-26T07:28:47.230Z,11.00
2019-04-26T07:31:41.237Z,11.20
2019-04-26T07:34:57.001Z,11.10
2019-04-26T07:38:04.736Z,11.20
2019-04-26T07:40:44.367Z,11.30
2019-04-26T07:43:44.837Z,11.50
2019-04-26T07:46:53.826Z,11.50
2019-04-26T07:49:53.412Z,11.80
2019-04-26T07:52:55.322Z,11.70
2019-04-26T07:55:40.213Z,12.00
2019-04-26T07:59:02.652Z,11.90
2019-04-26T08:02:02.524Z,12.20
2019-04-26T08:04:37.602Z,11.90
2019-04-26T08:07:13.321Z,11.80
2019-04-26T08:09:59.803Z,11.70
2019-04-26T08:12:26.720Z,11.90
2019-04-26T08:15:19.263Z,11.80
2019-04-26T08:17:58.448Z,11.90
2019-04-26T08:20:50.190Z,11.80
2019-04-26T08:23:41.428Z,12.00
2019-04-26T08:26:15.524Z,12.00
2019-04-26T08:28:48.377Z,12.40
2019-04-26T08:31:24.300Z,12.30
2019-04-26T08:34:00.931Z,12.50
2019-04-26T08:36:36.066Z,12.90
2019-04-26T08:39:15.898Z,12.60
2019-04-26T08:41:48.757Z,13.10
2019-04-26T08:44:35.611Z,13.40
2019-04-26T08:47:26.582Z,13.10
2019-04-26T08:50:17.742Z,12.90
2019-04-26T08:52:51.294Z,13.00
2019-04-26T08:55:22.571Z,13.40
2019-04-26T08:57:55.627Z,13.00
2019-04-26T09:00:40.761Z,13.00
2019-04-26T09:03:38.196Z,13.00
2019-04-26T09:06:44.383Z,12.90
2019-04-26T09:09:23.971Z,13.00
2019-04-26T09:11:59.836Z,13.20
2019-04-26T09:14:39.555Z,13.10
2019-04-26T09:17:09.967Z,13.00
2019-04-26T09:19:41.591Z,12.80
2019-04-26T09:22:30.886Z,13.00
2019-04-26T09:25:11.064Z,12.90
2019-04-26T09:28:06.241Z,12.90
2019-04-26T09:30:52.668Z,13.00
2019-04-26T09:33:38.303Z,12.80
2019-04-26T09:36:09.137Z,12.60
2019-04-26T09:38:40.764Z,12.50
2019-04-26T09:41:12.276Z,12.40
2019-04-26T09:43:55.009Z,12.40
2019-04-26T09:46:48.458Z,12.30
2019-04-26T09:49:37.374Z,12.30
2019-04-26T09:52:14.425Z,12.20
2019-04-26T09:54:44.740Z,12.10
2019-04-26T09:57:14.953Z,12.20
2019-04-26T09:59:45.040Z,11.90
2019-04-26T10:02:16.981Z,12.00
2019-04-26T10:04:47.158Z,11.60
2019-04-26T10:07:17.278Z,11.70
2019-04-26T10:09:47.697Z,11.70
2019-04-26T10:12:28.874Z,12.00
2019-04-26T10:15:12.708Z,11.80
2019-04-26T10:17:46.449Z,11.80
2019-04-26T10:20:15.080Z,11.60
2019-04-26T10:22:45.385Z,11.60
2019-04-26T10:25:16.936Z,11.60
2019-04-26T10:27:47.810Z,11.50
2019-04-26T10:30:18.443Z,11.70
2019-04-26T10:32:48.976Z,11.50
2019-04-26T10:35:21.801Z,11.40
2019-04-26T10:37:53.952Z,11.30
2019-04-26T10:40:35.067Z,11.30
2019-04-26T10:42:57.535Z,11.40
2019-04-26T10:45:28.425Z,11.30
2019-04-26T10:47:58.607Z,11.20
2019-04-26T10:50:32.925Z,11.30
2019-04-26T10:53:25.567Z,11.30
2019-04-26T10:56:23.788Z,11.40
2019-04-26T10:59:10.891Z,11.20
2019-04-26T11:01:42.214Z,11.10
2019-04-26T11:04:12.391Z,11.20
2019-04-26T11:06:42.587Z,11.20
2019-04-26T11:09:13.072Z,11.00
2019-04-26T11:11:43.274Z,10.90
2019-04-26T11:14:13.445Z,10.60
2019-04-26T11:16:43.559Z,10.50
2019-04-26T11:19:14.328Z,10.30
2019-04-26T11:21:45.611Z,10.50
2019-04-26T11:24:19.554Z,10.30
2019-04-26T11:26:47.537Z,10.20
2019-04-26T11:29:17.611Z,10.10
2019-04-26T11:31:47.733Z,10.10
2019-04-26T11:34:19.298Z,10.00
2019-04-26T11:36:50.566Z,9.90
2019-04-26T11:39:20.976Z,9.70
2019-04-26T11:41:51.289Z,9.70
2019-04-26T11:44:23.305Z,9.70
2019-04-26T11:46:53.323Z,9.60
2019-04-26T11:49:23.443Z,9.60
2019-04-26T11:51:53.603Z,9.50
2019-04-26T11:54:23.661Z,9.20
2019-04-26T11:56:53.883Z,9.10
2019-04-26T11:59:26.986Z,9.10
2019-04-26T12:01:56.289Z,8.90
2019-04-26T12:04:44.010Z,8.70
2019-04-26T12:07:26.629Z,8.40
2019-04-26T12:09:58.623Z,8.20
2019-04-26T12:12:28.789Z,8.20
2019-04-26T12:14:58.882Z,8.00
2019-04-26T12:17:31.228Z,8.00
2019-04-26T12:20:01.303Z,8.10
2019-04-26T12:22:33.233Z,8.00
2019-04-26T12:25:07.083Z,8.00
2019-04-26T12:27:35.537Z,8.20
2019-04-26T12:30:06.601Z,8.00
2019-04-26T12:32:36.900Z,7.80
2019-04-26T12:35:07.716Z,7.60
2019-04-26T12:37:37.843Z,7.60
2019-04-26T12:40:11.362Z,7.80
2019-04-26T12:42:43.342Z,7.90
2019-04-26T12:45:34.386Z,7.80
2019-04-26T12:48:08.132Z,7.80
2019-04-26T12:50:38.550Z,7.60
2019-04-26T12:53:08.608Z,7.50
2019-04-26T12:55:38.664Z,7.40
2019-04-26T12:58:11.091Z,7.40
2019-04-26T13:00:53.330Z,7.50
2019-04-26T13:03:20.251Z,7.50
2019-04-26T13:05:45.573Z,7.50
2019-04-26T13:08:16.984Z,7.60
2019-04-26T13:11:15.048Z,7.60
2019-04-26T13:13:52.144Z,7.50
2019-04-26T13:16:50.871Z,7.40
2019-04-26T13:19:21.085Z,7.40
2019-04-26T13:21:51.531Z,7.20
2019-04-26T13:24:21.699Z,7.20
2019-04-26T13:26:52.728Z,7.20
2019-04-26T13:29:23.070Z,7.10
2019-04-26T13:31:53.316Z,7.10
2019-04-26T13:34:24.775Z,7.10
2019-04-26T13:36:54.956Z,7.00
2019-04-26T13:39:25.012Z,7.10
2019-04-26T13:42:02.927Z,7.10
2019-04-26T13:44:44.882Z,7.10
2019-04-26T13:47:29.941Z,7.10
2019-04-26T13:50:13.051Z,7.10
2019-04-26T13:52:43.540Z,7.20
2019-04-26T13:55:13.851Z,7.10
2019-04-26T13:57:44.458Z,7.10
2019-04-26T14:00:23.435Z,7.00
2019-04-26T14:02:53.660Z,7.00
2019-04-26T14:05:23.845Z,7.00
2019-04-26T14:07:53.945Z,7.00
2019-04-26T14:10:24.556Z,6.90
2019-04-26T14:12:54.764Z,6.90
2019-04-26T14:15:24.918Z,6.80
2019-04-26T14:17:55.253Z,6.70
2019-04-26T14:20:26.699Z,6.70
2019-04-26T14:23:18.921Z,6.70
2019-04-26T14:26:13.924Z,6.70
2019-04-26T14:28:45.215Z,6.70
2019-04-26T14:31:18.229Z,6.70
2019-04-26T14:33:48.533Z,6.80
2019-04-26T14:36:22.644Z,6.80
2019-04-26T14:38:50.928Z,6.60
2019-04-26T14:41:22.561Z,6.60
2019-04-26T14:43:56.788Z,6.60
2019-04-26T14:46:25.286Z,6.60
2019-04-26T14:49:01.917Z,6.60
2019-04-26T14:51:27.325Z,6.60
2019-04-26T14:53:57.630Z,6.60
2019-04-26T14:56:29.222Z,6.60
2019-04-26T14:59:01.774Z,6.70
2019-04-26T15:01:59.259Z,6.80
2019-04-26T15:04:42.231Z,6.90
2019-04-26T15:07:19.622Z,6.90
2019-04-26T15:09:53.034Z,6.80
2019-04-26T15:12:25.154Z,6.80
2019-04-26T15:15:08.820Z,6.70
2019-04-26T15:17:38.607Z,6.70
2019-04-26T15:20:09.271Z,6.60
2019-04-26T15:22:42.861Z,6.60
2019-04-26T15:25:14.148Z,6.50
2019-04-26T15:27:44.373Z,6.50
2019-04-26T15:30:14.469Z,6.40
2019-04-26T15:32:52.928Z,6.50
2019-04-26T15:35:32.634Z,6.50
2019-04-26T15:38:09.611Z,6.50
2019-04-26T15:41:05.409Z,6.50
2019-04-26T15:43:51.882Z,6.40
2019-04-26T15:46:42.641Z,6.40
2019-04-26T15:49:34.070Z,6.40
2019-04-26T15:52:02.765Z,6.40
2019-04-26T15:54:33.241Z,6.40
2019-04-26T15:57:06.512Z,6.40
2019-04-26T15:59:36.561Z,6.40
2019-04-26T16:02:06.818Z,6.40
2019-04-26T16:04:37.214Z,6.40
2019-04-26T16:07:10.065Z,6.50
2019-04-26T16:09:43.693Z,6.50
2019-04-26T16:12:14.401Z,6.50
2019-04-26T16:14:53.849Z,6.50
2019-04-26T16:17:24.157Z,6.50
2019-04-26T16:19:56.187Z,6.50
2019-04-26T16:22:30.161Z,6.60
2019-04-26T16:25:01.796Z,6.50
2019-04-26T16:27:32.407Z,6.60
2019-04-26T16:30:28.499Z,6.60
2019-04-26T16:33:06.755Z,6.60
2019-04-26T16:35:37.305Z,6.60
2019-04-26T16:38:25.287Z,6.60
2019-04-26T16:40:55.571Z,6.60
2019-04-26T16:43:37.007Z,6.60
2019-04-26T16:45:57.605Z,6.60
2019-04-26T16:48:27.877Z,6.70
2019-04-26T16:51:01.203Z,6.80
2019-04-26T16:53:43.875Z,6.80
2019-04-26T16:56:13.047Z,6.90
2019-04-26T16:58:45.314Z,6.90
2019-04-26T17:01:15.562Z,7.00
2019-04-26T17:03:48.639Z,7.00
2019-04-26T17:06:18.935Z,7.00
2019-04-26T17:08:57.519Z,7.00
2019-04-26T17:11:23.029Z,7.10
2019-04-26T17:13:56.748Z,7.10
2019-04-26T17:16:25.753Z,7.30
2019-04-26T17:18:59.535Z,7.10
2019-04-26T17:21:34.499Z,7.20
2019-04-26T17:24:33.313Z,7.40
2019-04-26T17:27:09.711Z,7.40
2019-04-26T17:29:40.162Z,7.20
2019-04-26T17:32:15.540Z,7.20
2019-04-26T17:34:43.364Z,7.30
2019-04-26T17:37:37.957Z,7.10
2019-04-26T17:40:08.839Z,7.10
2019-04-26T17:42:40.705Z,7.10
2019-04-26T17:45:11.482Z,7.00
2019-04-26T17:47:42.401Z,7.00
2019-04-26T17:50:14.220Z,7.00
2019-04-26T17:52:44.545Z,7.00
2019-04-26T17:55:16.184Z,7.00
2019-04-26T17:57:49.982Z,7.00
2019-04-26T18:00:27.053Z,7.00
2019-04-26T18:03:01.268Z,7.10
2019-04-26T18:05:41.892Z,7.10
2019-04-26T18:08:31.296Z,7.10
2019-04-26T18:10:41.409Z,7.20
2019-04-26T18:13:11.279Z,7.10
2019-04-26T18:15:46.951Z,7.20
2019-04-26T18:18:30.033Z,7.10
2019-04-26T18:21:20.390Z,7.10
2019-04-26T18:23:54.619Z,7.00
2019-04-26T18:26:24.552Z,7.00
2019-04-26T18:28:55.336Z,7.00
2019-04-26T18:31:33.580Z,7.00
2019-04-26T18:34:01.833Z,6.90
2019-04-26T18:36:33.450Z,6.80
2019-04-26T18:39:06.600Z,6.80
2019-04-26T18:41:37.182Z,6.80
2019-04-26T18:44:07.459Z,6.80
2019-04-26T18:47:02.862Z,6.80
2019-04-26T18:49:33.054Z,6.80
2019-04-26T18:52:03.751Z,6.80
2019-04-26T18:54:40.176Z,6.80
2019-04-26T18:57:15.679Z,6.90
2019-04-26T18:59:44.804Z,6.90
2019-04-26T19:02:18.839Z,6.80
2019-04-26T19:04:49.610Z,6.90
2019-04-26T19:07:31.522Z,6.90
2019-04-26T19:10:02.959Z,6.90
2019-04-26T19:12:26.971Z,6.90
2019-04-26T19:15:13.110Z,7.00
2019-04-26T19:17:49.037Z,7.00
2019-04-26T19:20:50.513Z,7.00
2019-04-26T19:23:22.798Z,7.00
2019-04-26T19:25:52.989Z,7.00
2019-04-26T19:28:23.192Z,7.00
2019-04-26T19:30:53.663Z,7.10
2019-04-26T19:33:24.039Z,7.10
2019-04-26T19:35:54.310Z,7.10
2019-04-26T19:38:24.488Z,7.10
2019-04-26T19:40:54.670Z,7.10
2019-04-26T19:43:31.155Z,7.10
2019-04-26T19:46:06.055Z,7.10
2019-04-26T19:48:56.559Z,7.20
2019-04-26T19:51:43.773Z,7.20
2019-04-26T19:54:27.516Z,7.10
2019-04-26T19:57:02.600Z,7.00
2019-04-26T19:59:34.482Z,6.90
2019-04-26T20:02:05.965Z,6.80
2019-04-26T20:04:37.578Z,6.80
2019-04-26T20:07:17.638Z,6.70
2019-04-26T20:09:48.125Z,6.70
2019-04-26T20:12:18.283Z,6.70
2019-04-26T20:14:51.338Z,6.70
2019-04-26T20:17:23.448Z,6.70
2019-04-26T20:19:55.363Z,6.70
2019-04-26T20:22:28.657Z,6.60
2019-04-26T20:24:58.194Z,6.60
2019-04-26T20:27:28.358Z,6.60
2019-04-26T20:29:58.566Z,6.60
2019-04-26T20:32:35.171Z,6.60
2019-04-26T20:35:26.537Z,6.60
2019-04-26T20:37:56.209Z,6.70
2019-04-26T20:40:25.855Z,6.70
2019-04-26T20:43:02.072Z,6.70
2019-04-26T20:45:39.768Z,6.70
2019-04-26T20:48:02.365Z,6.80
2019-04-26T20:50:36.870Z,6.80
2019-04-26T20:53:07.464Z,6.90
2019-04-26T20:55:37.636Z,6.90
2019-04-26T20:58:08.728Z,6.90
2019-04-26T21:00:39.532Z,6.90
2019-04-26T21:03:21.078Z,7.00
2019-04-26T21:05:46.377Z,7.00
2019-04-26T21:08:13.567Z,7.00
2019-04-26T21:10:43.715Z,7.00
2019-04-26T21:13:13.880Z,7.00
2019-04-26T21:15:56.064Z,7.10
2019-04-26T21:18:15.774Z,7.10
2019-04-26T21:20:47.386Z,7.10
2019-04-26T21:23:17.487Z,7.10
2019-04-26T21:25:53.632Z,7.10
2019-04-26T21:28:43.931Z,7.10
2019-04-26T21:31:36.147Z,7.10
2019-04-26T21:34:14.371Z,7.10
2019-04-26T21:37:05.401Z,7.10
2019-04-26T21:39:47.634Z,7.10
2019-04-26T21:42:21.051Z,7.00
2019-04-26T21:44:52.455Z,7.10
2019-04-26T21:47:23.186Z,7.10
2019-04-26T21:49:58.805Z,7.10
2019-04-26T21:52:29.128Z,7.00
2019-04-26T21:54:57.454Z,7.00
2019-04-26T21:57:28.351Z,7.00
2019-04-26T21:59:58.681Z,7.00
2019-04-26T22:02:29.554Z,7.00
2019-04-26T22:05:00.893Z,7.00
2019-04-26T22:07:32.814Z,7.00
2019-04-26T22:10:14.717Z,6.90
2019-04-26T22:38:29.077Z,6.90
2019-04-26T22:41:03.046Z,6.80
2019-04-26T22:43:41.388Z,6.90
2019-04-26T22:46:30.084Z,6.90
2019-04-26T22:49:05.711Z,7.00
2019-04-26T22:51:37.389Z,7.00
2019-04-26T22:54:07.904Z,7.00
2019-04-26T22:56:38.457Z,7.00
2019-04-26T22:59:08.975Z,6.90
2019-04-26T23:01:44.674Z,7.00
2019-04-26T23:04:16.380Z,6.90
2019-04-26T23:06:46.939Z,6.90
2019-04-26T23:09:17.470Z,7.00
2019-04-26T23:12:27.692Z,6.90
2019-04-26T23:15:31.711Z,6.90
2019-04-26T23:18:30.329Z,6.90
2019-04-26T23:21:07.692Z,7.00
2019-04-26T23:23:37.194Z,7.00
2019-04-26T23:26:08.147Z,7.20
2019-04-26T23:28:38.338Z,7.20
2019-04-26T23:31:09.235Z,7.20
2019-04-26T23:33:44.034Z,7.30
2019-04-26T23:36:18.292Z,7.30
2019-04-26T23:38:46.005Z,7.30
2019-04-26T23:41:16.153Z,7.30
2019-04-26T23:43:46.285Z,7.30
2019-04-26T23:46:18.895Z,7.30
2019-04-26T23:48:49.700Z,7.30
2019-04-26T23:51:20.066Z,7.20
2019-04-26T23:53:50.618Z,7.20
2019-04-26T23:56:25.341Z,7.20
2019-04-26T23:58:54.424Z,7.20
